Time;durP1;ratioP1;P1;durP2;ratioP2;P2;SDS_P1;SDS_P2;PMS_P1;PMS_P2;Temp;Humidity;BMP_temperature;BMP_pressure;BME280_temperature;BME280_humidity;BME280_pressure;Samples;Min_cycle;Max_cycle;Signal;HPM_P1;HPM_P2
2022/11/27 00:02:30;;;;;;;10.37;7.00;;;;;;;;;;5003901;28;20218;-28
2022/11/27 00:04:57;;;;;;;14.03;7.20;;;;;;;;;;5019677;28;20213;-28
2022/11/27 00:07:24;;;;;;;13.37;7.03;;;;;;;;;;5130570;22;20241;-29
2022/11/27 00:09:51;;;;;;;10.40;6.83;;;;;;;;;;5057168;28;20227;-29
2022/11/27 00:12:18;;;;;;;7.13;6.27;;;;;;;;;;5066605;28;20227;-25
2022/11/27 00:14:48;;;;;;;10.50;6.10;;;;;;;;;;5068616;28;20216;-26
2022/11/27 00:17:15;;;;;;;9.83;6.07;;;;;;;;;;5062067;28;20205;-25
2022/11/27 00:19:43;;;;;;;7.43;5.73;;;;;;;;;;5073348;28;20197;-27
2022/11/27 00:22:10;;;;;;;8.00;5.70;;;;;;;;;;5083129;28;20213;-27
2022/11/27 00:24:37;;;;;;;11.10;6.50;;;;;;;;;;5072995;28;20206;-26
2022/11/27 00:27:04;;;;;;;8.90;5.93;;;;;;;;;;5073395;28;20296;-25
2022/11/27 00:29:31;;;;;;;9.57;5.87;;;;;;;;;;5067729;28;20202;-28
2022/11/27 00:32:00;;;;;;;11.87;7.53;;;;;;;;;;5068836;28;20221;-25
2022/11/27 00:34:27;;;;;;;11.07;7.30;;;;;;;;;;5073854;28;20259;-24
2022/11/27 00:36:54;;;;;;;11.40;7.53;;;;;;;;;;5070339;28;20206;-26
2022/11/27 00:39:21;;;;;;;13.20;8.00;;;;;;;;;;5058420;28;20296;-24
2022/11/27 00:41:48;;;;;;;12.17;7.33;;;;;;;;;;5073548;28;20223;-27
2022/11/27 00:44:15;;;;;;;10.10;7.40;;;;;;;;;;5071212;28;20212;-26
2022/11/27 00:46:42;;;;;;;10.43;6.67;;;;;;;;;;5060481;28;20208;-25
2022/11/27 00:49:13;;;;;;;10.00;6.77;;;;;;;;;;5062177;28;20212;-26
2022/11/27 00:51:40;;;;;;;7.90;5.57;;;;;;;;;;5062524;28;20231;-27
2022/11/27 00:54:07;;;;;;;9.50;6.60;;;;;;;;;;5070799;28;20223;-30
2022/11/27 00:56:35;;;;;;;11.63;6.87;;;;;;;;;;5067132;28;20292;-26
2022/11/27 00:59:02;;;;;;;9.37;6.50;;;;;;;;;;5069371;28;20197;-25
2022/11/27 01:01:30;;;;;;;7.90;6.67;;;;;;;;;;5055091;28;20221;-23
2022/11/27 01:03:58;;;;;;;8.43;5.70;;;;;;;;;;5070840;28;20221;-29
2022/11/27 01:06:28;;;;;;;9.23;6.10;;;;;;;;;;5069901;28;20201;-29
2022/11/27 01:08:56;;;;;;;8.47;6.30;;;;;;;;;;5061472;28;20204;-24
2022/11/27 01:11:24;;;;;;;8.50;5.87;;;;;;;;;;5081286;28;20279;-29
2022/11/27 01:13:52;;;;;;;9.87;5.97;;;;;;;;;;5089320;28;20319;-24
2022/11/27 01:16:20;;;;;;;8.13;5.83;;;;;;;;;;5056188;28;20232;-26
2022/11/27 01:18:48;;;;;;;8.53;6.00;;;;;;;;;;5069265;28;20200;-26
2022/11/27 01:21:16;;;;;;;7.27;6.07;;;;;;;;;;5072864;28;20229;-29
2022/11/27 01:23:44;;;;;;;8.93;6.13;;;;;;;;;;5069373;28;20201;-27
2022/11/27 01:26:11;;;;;;;8.67;6.27;;;;;;;;;;5064887;28;20201;-27
2022/11/27 01:28:39;;;;;;;8.83;5.77;;;;;;;;;;5072827;28;20223;-27
2022/11/27 01:31:07;;;;;;;7.07;4.73;;;;;;;;;;5056346;28;20228;-30
2022/11/27 01:33:34;;;;;;;8.40;5.57;;;;;;;;;;5067780;28;20212;-26
2022/11/27 01:36:02;;;;;;;9.90;6.23;;;;;;;;;;5072618;28;20238;-23
2022/11/27 01:38:30;;;;;;;8.37;6.07;;;;;;;;;;5072689;28;20215;-25
2022/11/27 01:41:00;;;;;;;8.23;5.43;;;;;;;;;;5061757;28;20308;-28
2022/11/27 01:43:37;;;;;;;8.80;5.80;;;;;;;;;;5074876;28;20208;-29
2022/11/27 01:46:05;;;;;;;6.97;5.67;;;;;;;;;;5062379;28;20243;-26
2022/11/27 01:48:32;;;;;;;8.43;5.83;;;;;;;;;;5076544;28;20203;-26
2022/11/27 01:50:59;;;;;;;7.87;5.67;;;;;;;;;;5079380;28;20225;-28
2022/11/27 01:53:26;;;;;;;7.23;5.63;;;;;;;;;;5075946;28;20223;-24
2022/11/27 01:55:55;;;;;;;6.23;5.23;;;;;;;;;;5069674;28;20206;-30
2022/11/27 01:58:25;;;;;;;8.87;5.30;;;;;;;;;;5078581;28;20193;-26
2022/11/27 02:01:02;;;;;;;8.60;5.87;;;;;;;;;;5067978;28;20228;-28
2022/11/27 02:03:29;;;;;;;6.57;5.17;;;;;;;;;;5067798;28;20279;-27
2022/11/27 02:05:56;;;;;;;8.50;5.40;;;;;;;;;;5078409;28;20224;-27
2022/11/27 02:08:24;;;;;;;8.83;5.87;;;;;;;;;;5076971;28;20223;-27
2022/11/27 02:10:53;;;;;;;8.83;5.43;;;;;;;;;;5072066;28;20221;-26
2022/11/27 02:13:23;;;;;;;6.77;5.00;;;;;;;;;;5078113;28;20252;-27
2022/11/27 02:15:54;;;;;;;5.33;4.83;;;;;;;;;;5063557;28;20224;-27
2022/11/27 02:18:25;;;;;;;7.27;5.30;;;;;;;;;;5072683;28;20201;-27
2022/11/27 02:20:56;;;;;;;7.20;5.00;;;;;;;;;;5079062;28;20316;-25
2022/11/27 02:23:34;;;;;;;6.67;5.23;;;;;;;;;;5073992;28;20198;-25
2022/11/27 02:26:19;;;;;;;7.90;5.73;;;;;;;;;;5077346;28;20193;-29
2022/11/27 02:28:57;;;;;;;6.30;4.67;;;;;;;;;;5078510;28;20205;-27
2022/11/27 02:31:26;;;;;;;6.50;5.30;;;;;;;;;;5075297;28;20227;-28
2022/11/27 02:33:55;;;;;;;5.77;5.13;;;;;;;;;;5078714;28;20224;-25
2022/11/27 02:36:24;;;;;;;7.57;5.50;;;;;;;;;;5078849;28;20215;-27
2022/11/27 02:38:53;;;;;;;6.30;4.87;;;;;;;;;;5073951;28;20211;-24
2022/11/27 02:41:23;;;;;;;6.23;5.30;;;;;;;;;;5078628;28;20225;-28
2022/11/27 02:43:51;;;;;;;7.53;5.90;;;;;;;;;;5078955;28;20212;-28
2022/11/27 02:46:20;;;;;;;6.60;4.90;;;;;;;;;;5060821;28;20297;-28
2022/11/27 02:48:49;;;;;;;8.87;5.90;;;;;;;;;;5075359;28;20204;-25
2022/11/27 02:51:17;;;;;;;7.27;5.37;;;;;;;;;;5078724;28;20225;-29
2022/11/27 02:53:46;;;;;;;8.73;5.53;;;;;;;;;;5071794;28;20232;-27
2022/11/27 02:56:17;;;;;;;5.50;4.63;;;;;;;;;;5067403;28;20203;-27
2022/11/27 02:58:45;;;;;;;7.47;5.43;;;;;;;;;;5075505;28;20194;-29
2022/11/27 03:01:13;;;;;;;9.77;5.30;;;;;;;;;;5062760;28;20305;-24
2022/11/27 03:03:43;;;;;;;5.57;4.77;;;;;;;;;;5074996;28;20204;-23
2022/11/27 03:06:11;;;;;;;5.97;4.90;;;;;;;;;;5059784;28;20282;-25
2022/11/27 03:08:44;;;;;;;6.47;5.33;;;;;;;;;;5053825;28;20300;-26
2022/11/27 03:11:12;;;;;;;7.27;5.33;;;;;;;;;;5073830;28;20224;-26
2022/11/27 03:13:41;;;;;;;6.50;5.00;;;;;;;;;;5078992;28;20216;-30
2022/11/27 03:16:11;;;;;;;8.20;5.03;;;;;;;;;;5064661;28;20201;-26
2022/11/27 03:18:40;;;;;;;6.93;5.73;;;;;;;;;;5077989;28;20206;-27
2022/11/27 03:21:12;;;;;;;7.30;5.57;;;;;;;;;;5067699;28;20225;-27
2022/11/27 03:23:39;;;;;;;7.17;5.50;;;;;;;;;;5063408;28;20189;-27
2022/11/27 03:26:06;;;;;;;7.27;5.70;;;;;;;;;;5068677;28;20210;-29
2022/11/27 03:28:33;;;;;;;8.80;6.13;;;;;;;;;;5075056;28;20202;-24
2022/11/27 03:31:01;;;;;;;9.00;6.30;;;;;;;;;;5067311;28;20236;-27
2022/11/27 03:33:28;;;;;;;6.43;5.40;;;;;;;;;;5068751;28;20217;-30
2022/11/27 03:35:55;;;;;;;8.73;6.40;;;;;;;;;;5074667;28;20202;-25
2022/11/27 03:38:24;;;;;;;9.37;7.03;;;;;;;;;;5068788;28;20208;-30
2022/11/27 03:40:55;;;;;;;8.00;6.47;;;;;;;;;;5066434;28;20225;-29
2022/11/27 03:43:24;;;;;;;7.80;6.20;;;;;;;;;;5074821;28;20196;-28
2022/11/27 03:45:53;;;;;;;10.67;6.50;;;;;;;;;;5058853;28;20214;-27
2022/11/27 03:48:24;;;;;;;8.23;6.20;;;;;;;;;;5068060;28;20201;-25
2022/11/27 03:50:59;;;;;;;7.57;6.00;;;;;;;;;;5074829;28;20225;-27
2022/11/27 03:53:32;;;;;;;7.23;5.73;;;;;;;;;;5074540;28;20223;-25
2022/11/27 03:56:02;;;;;;;7.10;6.03;;;;;;;;;;5066575;28;20197;-24
2022/11/27 03:58:34;;;;;;;8.80;6.53;;;;;;;;;;5074213;28;20223;-28
2022/11/27 04:01:01;;;;;;;6.93;5.73;;;;;;;;;;5060040;28;20226;-28
2022/11/27 04:03:29;;;;;;;9.10;5.90;;;;;;;;;;5068510;28;20213;-29
2022/11/27 04:05:57;;;;;;;7.17;6.07;;;;;;;;;;5073574;28;20212;-28
2022/11/27 04:08:24;;;;;;;7.43;6.03;;;;;;;;;;5077244;28;20221;-29
2022/11/27 04:10:53;;;;;;;7.17;5.90;;;;;;;;;;5073814;28;20225;-26
2022/11/27 04:13:20;;;;;;;9.13;6.10;;;;;;;;;;5074120;28;20228;-26
2022/11/27 04:15:47;;;;;;;6.63;5.60;;;;;;;;;;5060081;28;20206;-30
2022/11/27 04:18:15;;;;;;;6.37;5.20;;;;;;;;;;5067524;28;20743;-28
2022/11/27 04:20:42;;;;;;;7.90;5.43;;;;;;;;;;5073384;28;20223;-29
2022/11/27 04:23:10;;;;;;;7.33;6.27;;;;;;;;;;5064290;28;20208;-27
2022/11/27 04:25:37;;;;;;;6.93;5.27;;;;;;;;;;5059417;28;20252;-28
2022/11/27 04:28:05;;;;;;;7.53;5.50;;;;;;;;;;5073684;28;20292;-30
2022/11/27 04:30:32;;;;;;;7.50;5.57;;;;;;;;;;5067922;28;20221;-24
2022/11/27 04:32:59;;;;;;;5.93;4.97;;;;;;;;;;5067302;28;20292;-27
2022/11/27 04:35:27;;;;;;;8.43;5.40;;;;;;;;;;5073627;28;20207;-27
2022/11/27 04:37:54;;;;;;;7.20;5.60;;;;;;;;;;5067834;28;20293;-27
2022/11/27 04:40:21;;;;;;;8.03;5.57;;;;;;;;;;5061038;28;20227;-27
2022/11/27 04:42:48;;;;;;;6.63;5.03;;;;;;;;;;5073495;28;20212;-27
2022/11/27 04:45:17;;;;;;;6.40;5.53;;;;;;;;;;5066068;28;20198;-25
2022/11/27 04:47:44;;;;;;;6.07;5.10;;;;;;;;;;5063617;28;20201;-28
2022/11/27 04:50:11;;;;;;;7.37;4.80;;;;;;;;;;5073036;28;20205;-28
2022/11/27 04:52:38;;;;;;;5.80;5.00;;;;;;;;;;5069739;28;20296;-29
2022/11/27 04:55:06;;;;;;;6.10;5.03;;;;;;;;;;5067268;28;20235;-24
2022/11/27 04:57:33;;;;;;;5.43;4.87;;;;;;;;;;5078671;28;20193;-29
2022/11/27 05:00:00;;;;;;;5.27;4.73;;;;;;;;;;5053550;28;20204;-30
2022/11/27 05:02:28;;;;;;;5.57;4.63;;;;;;;;;;5067044;28;20205;-25
2022/11/27 05:04:56;;;;;;;5.60;4.50;;;;;;;;;;5073136;28;20196;-28
2022/11/27 05:07:23;;;;;;;6.20;4.73;;;;;;;;;;5073233;28;20245;-25
2022/11/27 05:09:50;;;;;;;6.50;4.90;;;;;;;;;;5067460;28;20212;-27
2022/11/27 05:12:17;;;;;;;5.63;5.00;;;;;;;;;;5071082;28;20232;-28
2022/11/27 05:14:44;;;;;;;5.60;5.00;;;;;;;;;;5065795;28;20224;-28
2022/11/27 05:17:11;;;;;;;6.03;4.67;;;;;;;;;;5059720;28;20208;-26
2022/11/27 05:19:40;;;;;;;5.37;4.73;;;;;;;;;;5072716;28;20203;-28
2022/11/27 05:22:07;;;;;;;5.50;4.90;;;;;;;;;;5053744;28;20233;-25
2022/11/27 05:24:34;;;;;;;4.83;4.37;;;;;;;;;;5056730;28;20197;-25
2022/11/27 05:27:01;;;;;;;6.23;4.57;;;;;;;;;;5069250;28;20232;-25
2022/11/27 05:29:29;;;;;;;5.23;4.40;;;;;;;;;;5067083;28;20221;-27
2022/11/27 05:31:56;;;;;;;5.77;4.27;;;;;;;;;;5063414;28;20243;-26
2022/11/27 05:34:23;;;;;;;7.67;5.00;;;;;;;;;;5067900;28;20225;-30
2022/11/27 05:36:52;;;;;;;5.50;4.07;;;;;;;;;;5065029;28;20217;-25
2022/11/27 05:39:19;;;;;;;5.90;4.40;;;;;;;;;;5058753;28;20253;-25
2022/11/27 05:41:46;;;;;;;5.37;4.80;;;;;;;;;;5072318;28;20217;-26
2022/11/27 05:44:13;;;;;;;6.97;5.00;;;;;;;;;;5069436;28;20490;-24
2022/11/27 05:46:42;;;;;;;6.67;4.80;;;;;;;;;;5057684;28;20202;-27
2022/11/27 05:49:11;;;;;;;4.50;4.00;;;;;;;;;;5074755;28;20207;-29
2022/11/27 05:51:40;;;;;;;5.63;5.03;;;;;;;;;;5076590;28;20222;-30
2022/11/27 05:54:09;;;;;;;5.97;5.17;;;;;;;;;;5065783;28;20219;-27
2022/11/27 05:56:36;;;;;;;4.90;4.40;;;;;;;;;;5060840;28;20212;-26
2022/11/27 05:59:03;;;;;;;5.83;4.77;;;;;;;;;;5061051;28;20306;-30
2022/11/27 06:01:30;;;;;;;4.80;4.30;;;;;;;;;;5068190;28;20348;-30
2022/11/27 06:03:57;;;;;;;6.33;4.73;;;;;;;;;;5071863;28;20189;-28
2022/11/27 06:06:25;;;;;;;5.00;4.50;;;;;;;;;;5143702;22;20233;-31
2022/11/27 06:08:52;;;;;;;5.77;4.87;;;;;;;;;;5046332;28;20256;-29
2022/11/27 06:11:21;;;;;;;4.93;4.27;;;;;;;;;;5040365;28;20309;-25
2022/11/27 06:13:49;;;;;;;6.90;4.80;;;;;;;;;;5049884;28;20265;-26
2022/11/27 06:16:17;;;;;;;5.77;4.90;;;;;;;;;;5039717;28;20203;-28
2022/11/27 06:18:44;;;;;;;4.30;3.90;;;;;;;;;;5051357;28;20202;-27
2022/11/27 06:21:13;;;;;;;4.63;4.13;;;;;;;;;;5040917;28;20230;-24
2022/11/27 06:23:41;;;;;;;5.20;4.33;;;;;;;;;;5048800;28;20301;-24
2022/11/27 06:26:12;;;;;;;5.77;4.83;;;;;;;;;;5048223;28;20202;-27
2022/11/27 06:28:41;;;;;;;5.10;4.60;;;;;;;;;;5052403;28;20247;-23
2022/11/27 06:31:09;;;;;;;5.77;4.73;;;;;;;;;;5052456;28;20284;-24
2022/11/27 06:33:36;;;;;;;5.13;4.63;;;;;;;;;;5051548;28;20293;-31
2022/11/27 06:36:04;;;;;;;5.50;4.80;;;;;;;;;;5056267;28;20296;-27
2022/11/27 06:38:32;;;;;;;5.97;4.60;;;;;;;;;;5046289;28;20211;-26
2022/11/27 06:41:02;;;;;;;5.87;4.10;;;;;;;;;;5049106;28;20235;-25
2022/11/27 06:43:29;;;;;;;4.93;4.37;;;;;;;;;;5056224;28;20289;-26
2022/11/27 06:45:58;;;;;;;5.00;4.30;;;;;;;;;;5050738;28;20198;-29
2022/11/27 06:48:25;;;;;;;6.10;4.83;;;;;;;;;;5052084;28;20237;-25
2022/11/27 06:51:01;;;;;;;6.17;4.60;;;;;;;;;;5055806;28;20223;-27
2022/11/27 06:53:28;;;;;;;5.57;4.40;;;;;;;;;;5055939;28;20186;-26
2022/11/27 06:55:55;;;;;;;4.37;3.97;;;;;;;;;;5039768;28;20219;-27
2022/11/27 06:58:23;;;;;;;6.33;4.70;;;;;;;;;;5055347;28;20204;-30
2022/11/27 07:00:50;;;;;;;6.47;4.77;;;;;;;;;;5045967;28;20233;-26
2022/11/27 07:03:19;;;;;;;4.60;4.07;;;;;;;;;;5049520;28;20202;-24
2022/11/27 07:05:46;;;;;;;4.57;3.47;;;;;;;;;;5055505;28;20236;-23
2022/11/27 07:08:13;;;;;;;5.03;3.73;;;;;;;;;;5055899;28;20213;-25
2022/11/27 07:10:40;;;;;;;4.80;3.97;;;;;;;;;;5047833;28;20222;-27
2022/11/27 07:13:07;;;;;;;4.67;3.80;;;;;;;;;;5055162;28;20198;-29
2022/11/27 07:15:34;;;;;;;3.60;3.13;;;;;;;;;;5050420;28;20236;-27
2022/11/27 07:18:03;;;;;;;5.37;3.80;;;;;;;;;;5054174;28;20209;-29
2022/11/27 07:20:32;;;;;;;3.37;3.07;;;;;;;;;;5055173;28;20225;-29
2022/11/27 07:23:00;;;;;;;3.70;3.40;;;;;;;;;;5046988;28;20240;-29
2022/11/27 07:25:27;;;;;;;5.03;4.20;;;;;;;;;;5054319;28;20202;-28
2022/11/27 07:27:55;;;;;;;4.77;4.00;;;;;;;;;;5055381;28;20202;-26
2022/11/27 07:30:23;;;;;;;5.33;3.80;;;;;;;;;;5049116;28;20222;-27
2022/11/27 07:32:50;;;;;;;4.53;3.93;;;;;;;;;;5049016;28;20267;-28
2022/11/27 07:35:17;;;;;;;6.47;3.90;;;;;;;;;;5053009;28;20232;-30
2022/11/27 07:37:46;;;;;;;5.43;4.10;;;;;;;;;;5054570;28;20224;-27
2022/11/27 07:40:13;;;;;;;6.73;3.73;;;;;;;;;;5039209;28;20206;-27
2022/11/27 07:42:40;;;;;;;5.00;4.20;;;;;;;;;;5054173;28;20205;-28
2022/11/27 07:45:08;;;;;;;4.60;4.20;;;;;;;;;;5051970;28;20230;-27
2022/11/27 07:47:35;;;;;;;4.23;3.80;;;;;;;;;;5048383;28;20237;-28
2022/11/27 07:50:02;;;;;;;4.30;3.83;;;;;;;;;;5054240;28;20194;-29
2022/11/27 07:52:30;;;;;;;4.93;3.93;;;;;;;;;;5054432;28;20216;-24
2022/11/27 07:54:58;;;;;;;6.17;3.90;;;;;;;;;;5047389;28;20260;-28
2022/11/27 07:57:25;;;;;;;5.10;4.30;;;;;;;;;;5043814;28;20216;-28
2022/11/27 07:59:52;;;;;;;5.50;3.47;;;;;;;;;;5051888;28;20206;-29
2022/11/27 08:02:26;;;;;;;3.67;3.33;;;;;;;;;;5048104;28;20205;-27
2022/11/27 08:04:53;;;;;;;5.20;4.07;;;;;;;;;;5054563;28;20259;-28
2022/11/27 08:07:21;;;;;;;5.27;4.27;;;;;;;;;;5052333;28;20218;-28
2022/11/27 08:09:48;;;;;;;4.17;3.67;;;;;;;;;;5047515;28;20212;-30
2022/11/27 08:12:16;;;;;;;5.30;4.30;;;;;;;;;;5039405;28;20232;-29
2022/11/27 08:14:45;;;;;;;4.33;3.93;;;;;;;;;;5045604;28;20265;-27
2022/11/27 08:17:13;;;;;;;4.13;3.73;;;;;;;;;;5042874;28;20202;-28
2022/11/27 08:19:42;;;;;;;5.00;4.40;;;;;;;;;;5043770;28;20212;-27
2022/11/27 08:22:12;;;;;;;3.47;3.17;;;;;;;;;;5051072;28;20226;-32
2022/11/27 08:24:41;;;;;;;5.47;3.67;;;;;;;;;;5057482;28;20208;-32
2022/11/27 08:27:08;;;;;;;5.40;3.77;;;;;;;;;;5039471;28;20315;-29
2022/11/27 08:29:39;;;;;;;5.07;3.80;;;;;;;;;;5052180;28;20248;-32
2022/11/27 08:32:06;;;;;;;4.63;4.23;;;;;;;;;;5040334;28;20304;-24
2022/11/27 08:34:33;;;;;;;5.07;4.13;;;;;;;;;;5047316;28;20283;-28
2022/11/27 08:37:00;;;;;;;3.90;3.50;;;;;;;;;;5046513;28;20363;-31
2022/11/27 08:39:27;;;;;;;4.30;3.90;;;;;;;;;;5048703;28;20206;-31
2022/11/27 08:41:54;;;;;;;5.23;4.03;;;;;;;;;;5053168;28;20228;-30
2022/11/27 08:44:22;;;;;;;4.07;3.67;;;;;;;;;;5043454;28;20202;-25
2022/11/27 08:46:50;;;;;;;4.30;3.90;;;;;;;;;;5049036;28;20224;-27
2022/11/27 08:49:17;;;;;;;4.17;3.77;;;;;;;;;;5052663;28;20209;-29
2022/11/27 08:51:44;;;;;;;5.63;4.23;;;;;;;;;;5049328;28;20224;-29
2022/11/27 08:54:12;;;;;;;5.37;4.50;;;;;;;;;;5050546;28;20202;-26
2022/11/27 08:56:39;;;;;;;4.40;4.00;;;;;;;;;;5051786;28;20232;-32
2022/11/27 08:59:10;;;;;;;4.27;3.87;;;;;;;;;;5055575;28;20212;-29
2022/11/27 09:01:37;;;;;;;5.63;4.13;;;;;;;;;;5056852;28;20231;-33
2022/11/27 09:04:06;;;;;;;10.40;6.83;;;;;;;;;;5053339;28;20214;-31
2022/11/27 09:06:35;;;;;;;7.83;5.73;;;;;;;;;;5056072;28;20215;-32
2022/11/27 09:09:03;;;;;;;7.97;6.73;;;;;;;;;;5041940;28;20202;-29
2022/11/27 09:11:31;;;;;;;9.60;6.87;;;;;;;;;;5041949;28;20222;-24
2022/11/27 09:13:59;;;;;;;10.53;6.27;;;;;;;;;;5052181;28;20252;-28
2022/11/27 09:16:26;;;;;;;10.37;6.30;;;;;;;;;;5047879;28;20222;-26
2022/11/27 09:18:54;;;;;;;8.93;7.00;;;;;;;;;;5048095;28;20198;-29
2022/11/27 09:21:23;;;;;;;9.33;6.70;;;;;;;;;;5052832;28;20391;-27
2022/11/27 09:23:53;;;;;;;12.77;7.50;;;;;;;;;;5040742;28;20202;-30
2022/11/27 09:26:22;;;;;;;8.43;6.53;;;;;;;;;;5051759;28;20194;-29
2022/11/27 09:28:49;;;;;;;11.37;6.90;;;;;;;;;;5052731;28;20247;-31
2022/11/27 09:31:17;;;;;;;9.50;7.07;;;;;;;;;;5036474;28;20289;-32
2022/11/27 09:33:44;;;;;;;10.83;6.20;;;;;;;;;;5046120;28;20212;-27
2022/11/27 09:36:12;;;;;;;7.63;4.87;;;;;;;;;;5048991;28;20221;-30
2022/11/27 09:38:41;;;;;;;7.13;5.00;;;;;;;;;;5049949;28;20212;-32
2022/11/27 09:41:20;;;;;;;6.93;5.10;;;;;;;;;;5046387;28;20336;-27
2022/11/27 09:43:51;;;;;;;5.37;4.27;;;;;;;;;;5052675;28;20243;-27
2022/11/27 09:46:21;;;;;;;6.23;4.83;;;;;;;;;;5045028;28;20213;-30
2022/11/27 09:48:50;;;;;;;6.40;4.87;;;;;;;;;;5048827;28;20196;-29
2022/11/27 09:51:25;;;;;;;6.53;5.27;;;;;;;;;;5052507;28;20221;-32
2022/11/27 09:53:57;;;;;;;5.77;4.47;;;;;;;;;;5044700;28;20198;-29
2022/11/27 09:56:25;;;;;;;4.60;4.17;;;;;;;;;;5047196;28;20224;-31
2022/11/27 09:58:56;;;;;;;5.77;4.63;;;;;;;;;;5044107;28;20220;-28
2022/11/27 10:01:25;;;;;;;5.87;4.70;;;;;;;;;;5040831;28;20232;-29
2022/11/27 10:03:52;;;;;;;5.93;4.90;;;;;;;;;;5052753;28;20209;-30
2022/11/27 10:06:25;;;;;;;5.47;4.10;;;;;;;;;;5047929;28;20206;-28
2022/11/27 10:09:00;;;;;;;4.90;3.77;;;;;;;;;;5043193;28;20210;-26
2022/11/27 10:11:31;;;;;;;5.67;4.70;;;;;;;;;;5050606;28;20223;-30
2022/11/27 10:14:08;;;;;;;6.20;4.90;;;;;;;;;;5050953;28;20199;-27
2022/11/27 10:16:38;;;;;;;6.37;4.93;;;;;;;;;;5046954;28;20226;-27
2022/11/27 10:19:09;;;;;;;5.10;4.53;;;;;;;;;;5041182;28;20202;-31
2022/11/27 10:21:40;;;;;;;5.13;4.07;;;;;;;;;;5050643;28;20598;-29
2022/11/27 10:24:11;;;;;;;8.20;5.37;;;;;;;;;;5055646;28;20201;-30
2022/11/27 10:26:41;;;;;;;5.90;4.87;;;;;;;;;;5050901;28;20190;-29
2022/11/27 10:29:15;;;;;;;5.67;4.60;;;;;;;;;;5046930;28;20209;-29
2022/11/27 10:31:47;;;;;;;5.10;4.60;;;;;;;;;;5049362;28;20232;-31
2022/11/27 10:34:20;;;;;;;8.93;5.03;;;;;;;;;;5047829;28;20198;-28
2022/11/27 10:36:49;;;;;;;5.17;4.67;;;;;;;;;;5049086;28;20210;-31
2022/11/27 10:39:19;;;;;;;5.30;4.80;;;;;;;;;;5048772;28;20628;-30
2022/11/27 10:41:51;;;;;;;6.97;5.03;;;;;;;;;;5052234;28;20221;-28
2022/11/27 10:44:27;;;;;;;7.10;4.30;;;;;;;;;;5050236;28;20275;-28
2022/11/27 10:46:57;;;;;;;5.90;5.07;;;;;;;;;;5048139;28;20198;-28
2022/11/27 10:49:25;;;;;;;6.87;5.23;;;;;;;;;;5054273;28;20202;-29
2022/11/27 10:51:54;;;;;;;5.67;4.83;;;;;;;;;;5050498;28;20226;-29
2022/11/27 10:54:25;;;;;;;7.43;6.10;;;;;;;;;;5039630;28;20198;-31
2022/11/27 10:57:01;;;;;;;6.43;5.50;;;;;;;;;;5049067;28;20221;-30
2022/11/27 10:59:30;;;;;;;7.53;5.60;;;;;;;;;;5051582;28;20217;-27
2022/11/27 11:01:59;;;;;;;7.73;6.50;;;;;;;;;;5050738;28;20217;-31
2022/11/27 11:04:27;;;;;;;6.80;5.80;;;;;;;;;;5049542;28;20283;-31
2022/11/27 11:06:55;;;;;;;4.90;4.47;;;;;;;;;;5053731;28;20210;-28
2022/11/27 11:09:26;;;;;;;7.30;5.67;;;;;;;;;;5047881;28;20217;-29
2022/11/27 11:11:53;;;;;;;6.13;5.10;;;;;;;;;;5052563;28;20217;-30
2022/11/27 11:14:21;;;;;;;6.77;5.60;;;;;;;;;;5050132;28;20206;-31
2022/11/27 11:16:49;;;;;;;6.43;4.80;;;;;;;;;;5037077;28;20218;-29
2022/11/27 11:19:23;;;;;;;6.73;5.60;;;;;;;;;;5053275;28;20206;-29
2022/11/27 11:21:51;;;;;;;7.10;5.83;;;;;;;;;;5053292;28;20280;-29
2022/11/27 11:24:22;;;;;;;8.53;6.57;;;;;;;;;;5051028;28;20198;-30
2022/11/27 11:26:52;;;;;;;7.37;5.77;;;;;;;;;;5053881;28;20261;-27
2022/11/27 11:29:24;;;;;;;8.57;6.43;;;;;;;;;;5052551;28;20210;-31
2022/11/27 11:31:53;;;;;;;9.27;6.50;;;;;;;;;;5049014;28;20332;-28
2022/11/27 11:34:22;;;;;;;7.03;5.50;;;;;;;;;;5053970;28;20202;-31
2022/11/27 11:36:56;;;;;;;8.87;6.17;;;;;;;;;;5054148;28;20228;-33
2022/11/27 11:39:24;;;;;;;8.47;7.00;;;;;;;;;;5042548;28;20277;-26
2022/11/27 11:41:53;;;;;;;8.17;6.53;;;;;;;;;;5049585;28;20226;-27
2022/11/27 11:44:22;;;;;;;9.60;7.07;;;;;;;;;;5046846;28;20207;-27
2022/11/27 11:46:52;;;;;;;9.50;7.10;;;;;;;;;;5038179;28;20233;-28
2022/11/27 11:49:23;;;;;;;8.30;6.60;;;;;;;;;;5052666;28;20202;-30
2022/11/27 11:52:05;;;;;;;9.20;7.17;;;;;;;;;;5053732;28;20222;-29
2022/11/27 11:54:40;;;;;;;8.97;6.57;;;;;;;;;;5037461;28;20205;-27
2022/11/27 11:57:16;;;;;;;8.43;6.50;;;;;;;;;;5054157;28;20221;-31
2022/11/27 11:59:47;;;;;;;9.30;7.00;;;;;;;;;;5049379;28;20199;-27
2022/11/27 12:02:23;;;;;;;7.53;6.33;;;;;;;;;;5047000;28;20253;-27
2022/11/27 12:05:06;;;;;;;9.10;6.53;;;;;;;;;;5053771;28;20201;-27
2022/11/27 12:07:40;;;;;;;10.40;6.57;;;;;;;;;;5263360;23;20235;-35
2022/11/27 12:10:13;;;;;;;8.63;6.40;;;;;;;;;;5031832;28;20212;-37
2022/11/27 12:12:47;;;;;;;6.43;5.50;;;;;;;;;;5035302;28;20199;-33
2022/11/27 12:15:20;;;;;;;7.23;5.80;;;;;;;;;;5025848;28;20207;-36
2022/11/27 12:17:51;;;;;;;7.00;5.70;;;;;;;;;;5027603;28;20208;-31
2022/11/27 12:20:21;;;;;;;6.43;4.63;;;;;;;;;;5030877;28;20325;-38
2022/11/27 12:23:13;;;;;;;6.00;4.83;;;;;;;;;;5023084;28;20200;-37
2022/11/27 12:25:44;;;;;;;5.23;4.73;;;;;;;;;;5032261;28;20199;-32
2022/11/27 12:28:18;;;;;;;7.23;4.20;;;;;;;;;;5032981;28;20534;-33
2022/11/27 12:30:49;;;;;;;5.47;4.60;;;;;;;;;;5021785;28;20322;-32
2022/11/27 12:33:25;;;;;;;6.03;4.57;;;;;;;;;;5031294;28;20281;-32
2022/11/27 12:35:56;;;;;;;7.57;4.90;;;;;;;;;;5032791;28;20203;-37
2022/11/27 12:38:31;;;;;;;6.27;3.47;;;;;;;;;;5032809;28;20202;-34
2022/11/27 12:41:13;;;;;;;3.83;2.80;;;;;;;;;;5019890;28;20223;-35
2022/11/27 12:43:45;;;;;;;2.97;2.60;;;;;;;;;;5033602;28;20206;-36
2022/11/27 12:46:14;;;;;;;4.27;2.80;;;;;;;;;;5024017;28;20227;-31
2022/11/27 12:48:45;;;;;;;4.73;2.63;;;;;;;;;;5020922;28;20217;-36
2022/11/27 12:51:16;;;;;;;5.47;3.20;;;;;;;;;;5022866;28;20237;-31
2022/11/27 12:53:45;;;;;;;4.83;2.80;;;;;;;;;;5029189;28;20230;-36
2022/11/27 12:56:15;;;;;;;3.70;2.90;;;;;;;;;;5017480;28;20219;-35
2022/11/27 12:58:46;;;;;;;3.27;2.60;;;;;;;;;;5031127;28;20420;-35
2022/11/27 13:01:15;;;;;;;4.20;2.77;;;;;;;;;;5016847;28;20450;-40
2022/11/27 13:03:47;;;;;;;3.83;2.67;;;;;;;;;;5032302;28;20206;-36
2022/11/27 13:06:15;;;;;;;4.13;2.47;;;;;;;;;;5032882;28;20240;-32
2022/11/27 13:08:45;;;;;;;3.47;2.80;;;;;;;;;;5022730;28;20303;-33
2022/11/27 13:11:13;;;;;;;4.83;3.47;;;;;;;;;;5023854;28;20230;-31
2022/11/27 13:13:42;;;;;;;2.40;2.20;;;;;;;;;;5032934;28;20219;-33
2022/11/27 13:16:14;;;;;;;3.53;2.40;;;;;;;;;;5026867;28;20226;-36
2022/11/27 13:18:42;;;;;;;5.27;3.67;;;;;;;;;;5032557;28;20209;-35
2022/11/27 13:21:12;;;;;;;3.50;2.90;;;;;;;;;;5032506;28;20723;-34
2022/11/27 13:23:39;;;;;;;3.07;2.77;;;;;;;;;;5024900;28;20198;-33
2022/11/27 13:26:08;;;;;;;5.60;3.07;;;;;;;;;;5032578;28;20213;-35
2022/11/27 13:28:39;;;;;;;2.80;2.50;;;;;;;;;;5032551;28;20294;-31
2022/11/27 13:31:07;;;;;;;4.03;2.93;;;;;;;;;;5024757;28;20226;-33
2022/11/27 13:33:38;;;;;;;4.77;2.93;;;;;;;;;;5032333;28;20209;-33
2022/11/27 13:36:07;;;;;;;3.40;2.90;;;;;;;;;;5024496;28;20313;-34
2022/11/27 13:38:37;;;;;;;3.83;2.50;;;;;;;;;;5029816;28;20206;-32
2022/11/27 13:41:05;;;;;;;3.07;2.60;;;;;;;;;;5031353;28;20246;-39
2022/11/27 13:43:39;;;;;;;3.47;2.43;;;;;;;;;;5032621;28;20209;-35
2022/11/27 13:46:08;;;;;;;4.43;3.23;;;;;;;;;;5021897;28;20294;-35
2022/11/27 13:48:38;;;;;;;2.40;2.20;;;;;;;;;;5032255;28;20190;-36
2022/11/27 13:51:06;;;;;;;3.53;2.80;;;;;;;;;;5032336;28;20257;-37
2022/11/27 13:53:36;;;;;;;4.60;2.97;;;;;;;;;;5027017;28;20206;-33
2022/11/27 13:56:04;;;;;;;3.43;2.93;;;;;;;;;;5031527;28;20203;-36
2022/11/27 13:58:32;;;;;;;4.47;3.20;;;;;;;;;;5031059;28;20206;-35
2022/11/27 14:00:59;;;;;;;4.63;3.13;;;;;;;;;;5026013;28;20219;-31
2022/11/27 14:03:27;;;;;;;4.73;3.20;;;;;;;;;;5032167;28;20294;-32
2022/11/27 14:05:56;;;;;;;3.63;2.80;;;;;;;;;;5031794;28;20202;-32
2022/11/27 14:08:24;;;;;;;4.53;3.20;;;;;;;;;;5024953;28;20459;-33
2022/11/27 14:10:54;;;;;;;4.67;3.60;;;;;;;;;;5030033;28;20230;-38
2022/11/27 14:13:21;;;;;;;4.37;2.60;;;;;;;;;;5025484;28;20203;-32
2022/11/27 14:16:00;;;;;;;5.67;3.17;;;;;;;;;;5024766;28;20202;-32
2022/11/27 14:18:28;;;;;;;4.00;3.10;;;;;;;;;;5025812;28;20218;-35
2022/11/27 14:20:57;;;;;;;5.43;3.80;;;;;;;;;;5032039;28;20229;-36
2022/11/27 14:23:28;;;;;;;6.50;3.70;;;;;;;;;;5032074;28;20233;-33
2022/11/27 14:26:01;;;;;;;4.00;3.43;;;;;;;;;;5022982;28;20214;-33
2022/11/27 14:28:29;;;;;;;4.33;2.90;;;;;;;;;;5031463;28;20201;-32
2022/11/27 14:30:57;;;;;;;8.90;3.90;;;;;;;;;;5020276;28;20290;-31
2022/11/27 14:33:25;;;;;;;4.70;3.83;;;;;;;;;;5031665;28;20205;-33
2022/11/27 14:35:53;;;;;;;4.40;3.30;;;;;;;;;;5031387;28;20207;-31
2022/11/27 14:38:22;;;;;;;5.77;3.70;;;;;;;;;;5031973;28;20317;-32
2022/11/27 14:40:52;;;;;;;6.47;3.83;;;;;;;;;;5020857;28;20218;-30
2022/11/27 14:43:22;;;;;;;7.67;4.00;;;;;;;;;;5029742;28;20207;-38
2022/11/27 14:45:51;;;;;;;3.90;3.43;;;;;;;;;;5020125;28;20207;-36
2022/11/27 14:48:22;;;;;;;5.97;4.13;;;;;;;;;;5023952;28;20506;-33
2022/11/27 14:50:50;;;;;;;4.73;3.87;;;;;;;;;;5028767;28;20218;-37
2022/11/27 14:53:18;;;;;;;4.70;3.37;;;;;;;;;;5026939;28;20209;-36
2022/11/27 14:55:48;;;;;;;5.83;3.20;;;;;;;;;;5028422;28;20206;-32